sensor_id;sensor_type;location;lat;lon;timestamp;pressure;altitude;pressure_sealevel;temperature;humidity
64200;BME280;50516;52.272;5.136;2023-05-10T00:01:21;100798.94;;;14.32;96.34
64200;BME280;50516;52.272;5.136;2023-05-10T00:03:46;100805.28;;;14.33;96.35
64200;BME280;50516;52.272;5.136;2023-05-10T00:06:12;100793.41;;;14.32;96.20
64200;BME280;50516;52.272;5.136;2023-05-10T00:08:40;100803.34;;;14.33;96.12
64200;BME280;50516;52.272;5.136;2023-05-10T00:11:05;100797.59;;;14.30;96.28
64200;BME280;50516;52.272;5.136;2023-05-10T00:13:31;100804.22;;;14.29;96.43
64200;BME280;50516;52.272;5.136;2023-05-10T00:15:57;100797.09;;;14.28;96.38
64200;BME280;50516;52.272;5.136;2023-05-10T00:18:22;100792.38;;;14.28;96.22
64200;BME280;50516;52.272;5.136;2023-05-10T00:20:47;100790.72;;;14.27;96.02
64200;BME280;50516;52.272;5.136;2023-05-10T00:23:13;100800.72;;;14.23;96.12
64200;BME280;50516;52.272;5.136;2023-05-10T00:25:39;100792.22;;;14.19;96.33
64200;BME280;50516;52.272;5.136;2023-05-10T00:28:04;100800.06;;;14.12;96.33
64200;BME280;50516;52.272;5.136;2023-05-10T00:30:30;100798.09;;;14.13;96.25
64200;BME280;50516;52.272;5.136;2023-05-10T00:32:55;100794.31;;;14.09;96.62
64200;BME280;50516;52.272;5.136;2023-05-10T00:35:20;100805.13;;;14.05;96.38
64200;BME280;50516;52.272;5.136;2023-05-10T00:37:46;100796.59;;;14.01;96.46
64200;BME280;50516;52.272;5.136;2023-05-10T00:40:12;100799.91;;;14.03;96.32
64200;BME280;50516;52.272;5.136;2023-05-10T00:42:37;100798.19;;;14.07;96.04
64200;BME280;50516;52.272;5.136;2023-05-10T00:45:03;100799.31;;;14.06;95.95
64200;BME280;50516;52.272;5.136;2023-05-10T00:47:28;100804.84;;;14.06;95.95
64200;BME280;50516;52.272;5.136;2023-05-10T00:49:54;100805.66;;;14.07;95.94
64200;BME280;50516;52.272;5.136;2023-05-10T00:52:21;100800.94;;;14.07;95.84
64200;BME280;50516;52.272;5.136;2023-05-10T00:54:48;100799.81;;;14.09;96.28
64200;BME280;50516;52.272;5.136;2023-05-10T00:57:13;100804.97;;;14.15;96.46
64200;BME280;50516;52.272;5.136;2023-05-10T00:59:39;100813.13;;;14.06;96.87
64200;BME280;50516;52.272;5.136;2023-05-10T01:02:05;100812.50;;;14.10;97.09
64200;BME280;50516;52.272;5.136;2023-05-10T01:04:31;100806.97;;;14.10;97.33
64200;BME280;50516;52.272;5.136;2023-05-10T01:06:56;100812.19;;;14.11;97.24
64200;BME280;50516;52.272;5.136;2023-05-10T01:09:22;100810.34;;;14.06;97.55
64200;BME280;50516;52.272;5.136;2023-05-10T01:11:48;100817.19;;;14.09;97.77
64200;BME280;50516;52.272;5.136;2023-05-10T01:14:14;100807.88;;;14.05;97.85
64200;BME280;50516;52.272;5.136;2023-05-10T01:16:46;100804.34;;;13.99;98.38
64200;BME280;50516;52.272;5.136;2023-05-10T01:19:29;100815.41;;;13.99;98.65
64200;BME280;50516;52.272;5.136;2023-05-10T01:22:04;100820.84;;;14.04;98.48
64200;BME280;50516;52.272;5.136;2023-05-10T01:24:46;100814.75;;;14.07;98.38
64200;BME280;50516;52.272;5.136;2023-05-10T01:30:27;100813.75;;;13.98;98.90
64200;BME280;50516;52.272;5.136;2023-05-10T01:36:35;100812.13;;;13.97;98.99
64200;BME280;50516;52.272;5.136;2023-05-10T01:39:29;100801.69;;;13.94;99.14
64200;BME280;50516;52.272;5.136;2023-05-10T01:42:03;100803.84;;;13.97;98.89
64200;BME280;50516;52.272;5.136;2023-05-10T01:47:11;100810.41;;;14.01;98.38
64200;BME280;50516;52.272;5.136;2023-05-10T01:49:58;100813.16;;;14.01;98.28
64200;BME280;50516;52.272;5.136;2023-05-10T01:52:32;100822.28;;;14.02;98.15
64200;BME280;50516;52.272;5.136;2023-05-10T01:55:18;100818.09;;;14.04;98.18
64200;BME280;50516;52.272;5.136;2023-05-10T01:57:46;100817.56;;;14.02;98.18
64200;BME280;50516;52.272;5.136;2023-05-10T02:00:14;100813.75;;;13.98;98.56
64200;BME280;50516;52.272;5.136;2023-05-10T02:02:43;100816.47;;;14.03;98.25
64200;BME280;50516;52.272;5.136;2023-05-10T02:05:12;100823.53;;;14.10;97.93
64200;BME280;50516;52.272;5.136;2023-05-10T02:07:38;100818.56;;;14.12;97.64
64200;BME280;50516;52.272;5.136;2023-05-10T02:10:08;100813.13;;;14.06;97.86
64200;BME280;50516;52.272;5.136;2023-05-10T02:12:41;100825.28;;;14.05;98.11
64200;BME280;50516;52.272;5.136;2023-05-10T02:15:07;100823.25;;;14.11;97.98
64200;BME280;50516;52.272;5.136;2023-05-10T02:17:35;100817.13;;;14.14;97.86
64200;BME280;50516;52.272;5.136;2023-05-10T02:20:03;100827.66;;;14.12;97.85
64200;BME280;50516;52.272;5.136;2023-05-10T02:22:31;100826.91;;;14.06;98.14
64200;BME280;50516;52.272;5.136;2023-05-10T02:24:58;100830.78;;;14.05;98.29
64200;BME280;50516;52.272;5.136;2023-05-10T02:27:25;100835.84;;;13.98;98.76
64200;BME280;50516;52.272;5.136;2023-05-10T02:29:53;100835.25;;;14.01;98.71
64200;BME280;50516;52.272;5.136;2023-05-10T02:32:19;100844.38;;;14.02;98.63
64200;BME280;50516;52.272;5.136;2023-05-10T02:34:46;100844.06;;;14.03;98.79
64200;BME280;50516;52.272;5.136;2023-05-10T02:37:18;100837.63;;;14.08;98.50
64200;BME280;50516;52.272;5.136;2023-05-10T02:39:46;100835.78;;;14.03;98.77
64200;BME280;50516;52.272;5.136;2023-05-10T02:42:16;100839.13;;;14.00;98.78
64200;BME280;50516;52.272;5.136;2023-05-10T02:44:43;100846.44;;;13.91;99.24
64200;BME280;50516;52.272;5.136;2023-05-10T02:47:10;100842.44;;;13.78;99.95
64200;BME280;50516;52.272;5.136;2023-05-10T02:49:36;100849.03;;;13.58;100.00
64200;BME280;50516;52.272;5.136;2023-05-10T02:52:05;100847.38;;;13.57;100.00
64200;BME280;50516;52.272;5.136;2023-05-10T02:54:41;100853.84;;;13.72;100.00
64200;BME280;50516;52.272;5.136;2023-05-10T02:57:11;100846.59;;;13.76;100.00
64200;BME280;50516;52.272;5.136;2023-05-10T02:59:40;100849.34;;;13.76;100.00
64200;BME280;50516;52.272;5.136;2023-05-10T03:02:08;100850.50;;;13.75;100.00
64200;BME280;50516;52.272;5.136;2023-05-10T03:04:33;100858.28;;;13.67;100.00
64200;BME280;50516;52.272;5.136;2023-05-10T03:06:59;100850.25;;;13.47;100.00
64200;BME280;50516;52.272;5.136;2023-05-10T03:09:24;100854.03;;;13.51;100.00
64200;BME280;50516;52.272;5.136;2023-05-10T03:11:59;100840.31;;;13.46;100.00
64200;BME280;50516;52.272;5.136;2023-05-10T03:19:43;100851.38;;;13.70;100.00
64200;BME280;50516;52.272;5.136;2023-05-10T03:22:13;100846.28;;;13.82;100.00
64200;BME280;50516;52.272;5.136;2023-05-10T03:24:45;100846.78;;;13.84;100.00
64200;BME280;50516;52.272;5.136;2023-05-10T03:27:14;100846.06;;;13.74;100.00
64200;BME280;50516;52.272;5.136;2023-05-10T03:29:40;100859.56;;;13.75;100.00
64200;BME280;50516;52.272;5.136;2023-05-10T03:32:06;100854.41;;;13.68;100.00
64200;BME280;50516;52.272;5.136;2023-05-10T03:34:32;100854.13;;;13.70;100.00
64200;BME280;50516;52.272;5.136;2023-05-10T03:37:00;100858.84;;;13.64;100.00
64200;BME280;50516;52.272;5.136;2023-05-10T03:39:25;100862.75;;;13.63;100.00
64200;BME280;50516;52.272;5.136;2023-05-10T03:41:51;100861.03;;;13.67;100.00
64200;BME280;50516;52.272;5.136;2023-05-10T03:44:16;100868.94;;;13.79;100.00
64200;BME280;50516;52.272;5.136;2023-05-10T03:46:41;100866.41;;;13.83;99.82
64200;BME280;50516;52.272;5.136;2023-05-10T03:49:07;100865.53;;;13.87;99.63
64200;BME280;50516;52.272;5.136;2023-05-10T03:51:32;100873.03;;;13.82;99.63
64200;BME280;50516;52.272;5.136;2023-05-10T03:53:57;100874.38;;;13.84;99.80
64200;BME280;50516;52.272;5.136;2023-05-10T03:56:23;100869.75;;;13.80;100.00
64200;BME280;50516;52.272;5.136;2023-05-10T03:58:48;100879.09;;;13.84;99.77
64200;BME280;50516;52.272;5.136;2023-05-10T04:01:14;100869.16;;;13.83;99.86
64200;BME280;50516;52.272;5.136;2023-05-10T04:03:39;100882.94;;;13.83;100.00
64200;BME280;50516;52.272;5.136;2023-05-10T04:06:05;100870.69;;;13.70;100.00
64200;BME280;50516;52.272;5.136;2023-05-10T04:08:31;100873.66;;;13.74;100.00
64200;BME280;50516;52.272;5.136;2023-05-10T04:11:06;100877.25;;;13.74;100.00
64200;BME280;50516;52.272;5.136;2023-05-10T04:13:32;100873.03;;;13.82;100.00
64200;BME280;50516;52.272;5.136;2023-05-10T04:15:58;100880.94;;;13.88;99.51
64200;BME280;50516;52.272;5.136;2023-05-10T04:18:23;100875.72;;;13.87;99.44
64200;BME280;50516;52.272;5.136;2023-05-10T04:20:48;100880.50;;;13.81;99.91
64200;BME280;50516;52.272;5.136;2023-05-10T04:23:13;100870.19;;;13.87;99.78
64200;BME280;50516;52.272;5.136;2023-05-10T04:25:40;100880.78;;;13.80;100.00
64200;BME280;50516;52.272;5.136;2023-05-10T04:28:05;100879.41;;;13.77;100.00
64200;BME280;50516;52.272;5.136;2023-05-10T04:30:31;100878.25;;;13.83;99.79
64200;BME280;50516;52.272;5.136;2023-05-10T04:32:56;100878.44;;;13.92;99.18
64200;BME280;50516;52.272;5.136;2023-05-10T04:35:21;100884.06;;;13.82;99.50
64200;BME280;50516;52.272;5.136;2023-05-10T04:37:47;100890.88;;;13.90;99.20
64200;BME280;50516;52.272;5.136;2023-05-10T04:40:12;100893.75;;;13.79;99.49
64200;BME280;50516;52.272;5.136;2023-05-10T04:42:39;100894.34;;;13.76;99.78
64200;BME280;50516;52.272;5.136;2023-05-10T04:45:06;100899.13;;;13.65;100.00
64200;BME280;50516;52.272;5.136;2023-05-10T04:47:31;100895.06;;;13.58;100.00
64200;BME280;50516;52.272;5.136;2023-05-10T04:49:57;100891.78;;;13.56;100.00
64200;BME280;50516;52.272;5.136;2023-05-10T04:52:23;100891.78;;;13.56;100.00
64200;BME280;50516;52.272;5.136;2023-05-10T04:54:48;100884.47;;;13.70;100.00
64200;BME280;50516;52.272;5.136;2023-05-10T04:57:14;100893.50;;;13.76;99.54
64200;BME280;50516;52.272;5.136;2023-05-10T04:59:39;100895.66;;;13.84;99.21
64200;BME280;50516;52.272;5.136;2023-05-10T05:02:05;100893.50;;;13.76;99.27
64200;BME280;50516;52.272;5.136;2023-05-10T05:04:30;100895.31;;;13.85;99.02
64200;BME280;50516;52.272;5.136;2023-05-10T05:06:56;100902.69;;;13.95;98.51
64200;BME280;50516;52.272;5.136;2023-05-10T05:09:21;100913.25;;;13.88;98.81
64200;BME280;50516;52.272;5.136;2023-05-10T05:11:46;100912.16;;;13.89;98.54
64200;BME280;50516;52.272;5.136;2023-05-10T05:14:11;100915.94;;;13.93;98.27
64200;BME280;50516;52.272;5.136;2023-05-10T05:16:37;100907.66;;;13.93;98.08
64200;BME280;50516;52.272;5.136;2023-05-10T05:19:02;100919.00;;;13.92;97.65
64200;BME280;50516;52.272;5.136;2023-05-10T05:21:28;100922.06;;;13.90;97.95
64200;BME280;50516;52.272;5.136;2023-05-10T05:23:53;100928.72;;;13.89;98.08
64200;BME280;50516;52.272;5.136;2023-05-10T05:26:19;100929.53;;;13.90;98.21
64200;BME280;50516;52.272;5.136;2023-05-10T05:28:44;100926.75;;;13.90;97.96
64200;BME280;50516;52.272;5.136;2023-05-10T05:31:09;100929.59;;;13.84;98.36
64200;BME280;50516;52.272;5.136;2023-05-10T05:33:35;100938.16;;;13.83;97.87
64200;BME280;50516;52.272;5.136;2023-05-10T05:36:01;100944.47;;;13.83;97.54
64200;BME280;50516;52.272;5.136;2023-05-10T05:38:27;100948.91;;;13.84;97.48
64200;BME280;50516;52.272;5.136;2023-05-10T05:40:52;100948.31;;;13.87;97.34
64200;BME280;50516;52.272;5.136;2023-05-10T05:43:18;100943.03;;;13.91;97.20
64200;BME280;50516;52.272;5.136;2023-05-10T05:45:43;100952.38;;;13.95;97.27
64200;BME280;50516;52.272;5.136;2023-05-10T05:48:08;100950.59;;;14.04;96.79
64200;BME280;50516;52.272;5.136;2023-05-10T05:50:34;100952.84;;;14.02;96.51
64200;BME280;50516;52.272;5.136;2023-05-10T05:52:59;100956.19;;;13.99;96.60
64200;BME280;50516;52.272;5.136;2023-05-10T05:55:24;100957.28;;;13.98;96.27
64200;BME280;50516;52.272;5.136;2023-05-10T05:57:51;100954.94;;;13.86;97.00
64200;BME280;50516;52.272;5.136;2023-05-10T06:00:16;100960.75;;;13.85;97.52
64200;BME280;50516;52.272;5.136;2023-05-10T06:02:42;100963.16;;;13.92;97.04
64200;BME280;50516;52.272;5.136;2023-05-10T06:05:08;100956.41;;;14.03;96.12
64200;BME280;50516;52.272;5.136;2023-05-10T06:07:33;100965.94;;;13.92;96.41
64200;BME280;50516;52.272;5.136;2023-05-10T06:09:59;100967.81;;;13.96;96.60
64200;BME280;50516;52.272;5.136;2023-05-10T06:12:24;100970.56;;;13.96;96.75
64200;BME280;50516;52.272;5.136;2023-05-10T06:14:49;100968.31;;;14.03;96.64
64200;BME280;50516;52.272;5.136;2023-05-10T06:17:14;100964.84;;;14.17;95.94
64200;BME280;50516;52.272;5.136;2023-05-10T06:19:40;100973.19;;;14.12;96.31
64200;BME280;50516;52.272;5.136;2023-05-10T06:22:05;100973.06;;;14.22;95.43
64200;BME280;50516;52.272;5.136;2023-05-10T06:24:30;100969.53;;;14.40;95.08
64200;BME280;50516;52.272;5.136;2023-05-10T06:26:56;100968.88;;;14.49;94.48
64200;BME280;50516;52.272;5.136;2023-05-10T06:29:21;100970.16;;;14.56;94.71
64200;BME280;50516;52.272;5.136;2023-05-10T06:31:46;100971.88;;;14.52;94.78
64200;BME280;50516;52.272;5.136;2023-05-10T06:34:12;100977.69;;;14.51;94.39
64200;BME280;50516;52.272;5.136;2023-05-10T06:36:38;100984.25;;;14.60;93.81
64200;BME280;50516;52.272;5.136;2023-05-10T06:39:03;100979.28;;;14.57;94.38
64200;BME280;50516;52.272;5.136;2023-05-10T06:41:29;100980.91;;;14.58;93.41
64200;BME280;50516;52.272;5.136;2023-05-10T06:43:54;100985.09;;;14.55;94.28
64200;BME280;50516;52.272;5.136;2023-05-10T06:46:19;100989.25;;;14.53;93.88
64200;BME280;50516;52.272;5.136;2023-05-10T06:48:45;100982.03;;;14.57;93.30
64200;BME280;50516;52.272;5.136;2023-05-10T06:51:10;100980.34;;;14.61;93.57
64200;BME280;50516;52.272;5.136;2023-05-10T06:53:36;100979.75;;;14.64;93.16
64200;BME280;50516;52.272;5.136;2023-05-10T06:56:01;100975.88;;;14.65;92.17
64200;BME280;50516;52.272;5.136;2023-05-10T06:58:28;100985.88;;;14.61;93.27
64200;BME280;50516;52.272;5.136;2023-05-10T07:00:53;100993.38;;;14.55;94.39
64200;BME280;50516;52.272;5.136;2023-05-10T07:03:18;100988.16;;;14.54;93.21
64200;BME280;50516;52.272;5.136;2023-05-10T07:05:44;100991.00;;;14.49;93.15
64200;BME280;50516;52.272;5.136;2023-05-10T07:08:09;100988.56;;;14.42;94.22
64200;BME280;50516;52.272;5.136;2023-05-10T07:10:34;100993.78;;;14.43;94.39
64200;BME280;50516;52.272;5.136;2023-05-10T07:12:59;100998.50;;;14.43;94.05
64200;BME280;50516;52.272;5.136;2023-05-10T07:15:26;101001.25;;;14.43;94.14
64200;BME280;50516;52.272;5.136;2023-05-10T07:17:51;101007.59;;;14.43;94.53
64200;BME280;50516;52.272;5.136;2023-05-10T07:20:17;101006.06;;;14.32;94.57
64200;BME280;50516;52.272;5.136;2023-05-10T07:22:42;101007.28;;;14.26;94.96
64200;BME280;50516;52.272;5.136;2023-05-10T07:25:07;101005.91;;;14.48;94.70
64200;BME280;50516;52.272;5.136;2023-05-10T07:27:33;101008.81;;;14.37;94.41
64200;BME280;50516;52.272;5.136;2023-05-10T07:29:58;101014.19;;;14.48;94.61
64200;BME280;50516;52.272;5.136;2023-05-10T07:32:23;101021.13;;;14.45;93.89
64200;BME280;50516;52.272;5.136;2023-05-10T07:34:49;101017.41;;;14.60;93.58
64200;BME280;50516;52.272;5.136;2023-05-10T07:37:14;101029.44;;;14.69;93.37
64200;BME280;50516;52.272;5.136;2023-05-10T07:39:39;101024.16;;;14.92;91.53
64200;BME280;50516;52.272;5.136;2023-05-10T07:42:05;101027.03;;;15.06;91.39
64200;BME280;50516;52.272;5.136;2023-05-10T07:44:30;101021.28;;;15.21;90.57
64200;BME280;50516;52.272;5.136;2023-05-10T07:46:56;101031.13;;;15.27;89.56
64200;BME280;50516;52.272;5.136;2023-05-10T07:49:21;101028.97;;;15.24;90.68
64200;BME280;50516;52.272;5.136;2023-05-10T07:51:49;101032.56;;;15.25;90.48
64200;BME280;50516;52.272;5.136;2023-05-10T07:54:15;101030.75;;;15.34;90.79
64200;BME280;50516;52.272;5.136;2023-05-10T07:56:40;101026.09;;;15.48;89.67
64200;BME280;50516;52.272;5.136;2023-05-10T07:59:14;101031.09;;;15.65;88.98
64200;BME280;50516;52.272;5.136;2023-05-10T08:01:41;101031.09;;;15.65;89.52
64200;BME280;50516;52.272;5.136;2023-05-10T08:04:06;101032.09;;;15.56;89.05
64200;BME280;50516;52.272;5.136;2023-05-10T08:06:32;101030.44;;;15.55;89.21
64200;BME280;50516;52.272;5.136;2023-05-10T08:08:57;101030.00;;;15.47;88.23
64200;BME280;50516;52.272;5.136;2023-05-10T08:11:23;101041.06;;;15.47;87.54
64200;BME280;50516;52.272;5.136;2023-05-10T08:13:49;101038.81;;;15.49;87.40
64200;BME280;50516;52.272;5.136;2023-05-10T08:16:16;101041.19;;;15.56;86.02
64200;BME280;50516;52.272;5.136;2023-05-10T08:18:43;101044.44;;;15.63;86.66
64200;BME280;50516;52.272;5.136;2023-05-10T08:21:09;101057.81;;;15.56;86.83
64200;BME280;50516;52.272;5.136;2023-05-10T08:23:36;101060.19;;;15.63;86.25
64200;BME280;50516;52.272;5.136;2023-05-10T08:26:01;101054.75;;;15.77;85.98
64200;BME280;50516;52.272;5.136;2023-05-10T08:28:27;101063.31;;;15.75;85.84
64200;BME280;50516;52.272;5.136;2023-05-10T08:30:52;101068.09;;;15.69;85.77
64200;BME280;50516;52.272;5.136;2023-05-10T08:33:18;101071.25;;;15.63;87.35
64200;BME280;50516;52.272;5.136;2023-05-10T08:35:44;101069.03;;;15.65;87.13
64200;BME280;50516;52.272;5.136;2023-05-10T08:38:09;101063.31;;;15.75;87.28
64200;BME280;50516;52.272;5.136;2023-05-10T08:40:36;101068.94;;;15.89;87.10
64200;BME280;50516;52.272;5.136;2023-05-10T08:43:07;101071.03;;;15.97;86.59
64200;BME280;50516;52.272;5.136;2023-05-10T08:45:38;101075.78;;;16.11;86.39
64200;BME280;50516;52.272;5.136;2023-05-10T08:48:05;101075.09;;;16.33;83.24
64200;BME280;50516;52.272;5.136;2023-05-10T08:50:31;101080.53;;;16.52;82.13
64200;BME280;50516;52.272;5.136;2023-05-10T08:52:59;101081.78;;;16.59;82.65
64200;BME280;50516;52.272;5.136;2023-05-10T08:55:25;101085.69;;;16.45;83.23
64200;BME280;50516;52.272;5.136;2023-05-10T08:57:51;101083.00;;;16.53;83.40
64200;BME280;50516;52.272;5.136;2023-05-10T09:00:17;101089.28;;;16.59;83.69
64200;BME280;50516;52.272;5.136;2023-05-10T09:02:43;101084.44;;;16.65;83.69
64200;BME280;50516;52.272;5.136;2023-05-10T09:05:09;101081.59;;;16.56;83.33
64200;BME280;50516;52.272;5.136;2023-05-10T09:07:35;101084.28;;;16.75;82.05
64200;BME280;50516;52.272;5.136;2023-05-10T09:10:02;101086.72;;;16.76;81.19
64200;BME280;50516;52.272;5.136;2023-05-10T09:12:28;101084.81;;;16.91;82.57
64200;BME280;50516;52.272;5.136;2023-05-10T09:14:54;101087.97;;;16.98;82.17
64200;BME280;50516;52.272;5.136;2023-05-10T09:17:22;101084.28;;;16.75;82.86
64200;BME280;50516;52.272;5.136;2023-05-10T09:19:48;101094.50;;;16.74;83.80
64200;BME280;50516;52.272;5.136;2023-05-10T09:22:13;101100.69;;;16.57;84.28
64200;BME280;50516;52.272;5.136;2023-05-10T09:24:38;101104.47;;;16.61;83.03
64200;BME280;50516;52.272;5.136;2023-05-10T09:27:07;101105.22;;;16.67;83.44
64200;BME280;50516;52.272;5.136;2023-05-10T09:29:41;101114.06;;;16.97;81.06
64200;BME280;50516;52.272;5.136;2023-05-10T09:32:06;101110.97;;;17.26;78.31
64200;BME280;50516;52.272;5.136;2023-05-10T09:34:32;101111.31;;;17.47;78.23
64200;BME280;50516;52.272;5.136;2023-05-10T09:37:00;101105.50;;;17.72;79.58
64200;BME280;50516;52.272;5.136;2023-05-10T09:39:35;101105.69;;;17.75;77.67
64200;BME280;50516;52.272;5.136;2023-05-10T09:42:06;101119.28;;;17.99;78.54
64200;BME280;50516;52.272;5.136;2023-05-10T09:44:33;101116.31;;;17.96;78.29
64200;BME280;50516;52.272;5.136;2023-05-10T09:47:02;101114.94;;;17.70;79.11
64200;BME280;50516;52.272;5.136;2023-05-10T09:49:28;101116.25;;;17.50;79.57
64200;BME280;50516;52.272;5.136;2023-05-10T09:52:05;101120.78;;;17.32;79.93
64200;BME280;50516;52.272;5.136;2023-05-10T09:54:31;101115.56;;;17.31;80.68
64200;BME280;50516;52.272;5.136;2023-05-10T09:56:57;101115.56;;;17.31;79.56
64200;BME280;50516;52.272;5.136;2023-05-10T09:59:25;101121.72;;;17.42;80.61
64200;BME280;50516;52.272;5.136;2023-05-10T10:01:51;101126.94;;;17.43;80.29
64200;BME280;50516;52.272;5.136;2023-05-10T10:04:17;101130.91;;;17.28;81.34
64200;BME280;50516;52.272;5.136;2023-05-10T10:06:42;101124.06;;;17.48;79.66
64200;BME280;50516;52.272;5.136;2023-05-10T10:09:08;101126.75;;;17.40;79.23
64200;BME280;50516;52.272;5.136;2023-05-10T10:11:35;101128.19;;;17.51;79.72
64200;BME280;50516;52.272;5.136;2023-05-10T10:14:01;101130.84;;;17.42;79.25
64200;BME280;50516;52.272;5.136;2023-05-10T10:16:28;101136.63;;;17.46;80.17
64200;BME280;50516;52.272;5.136;2023-05-10T10:18:54;101143.59;;;17.43;78.91
64200;BME280;50516;52.272;5.136;2023-05-10T10:21:20;101140.53;;;17.45;78.48
64200;BME280;50516;52.272;5.136;2023-05-10T10:23:46;101139.78;;;17.53;78.70
64200;BME280;50516;52.272;5.136;2023-05-10T10:26:11;101138.97;;;17.89;77.91
64200;BME280;50516;52.272;5.136;2023-05-10T10:31:30;101144.63;;;17.84;78.13
64200;BME280;50516;52.272;5.136;2023-05-10T10:34:04;101142.72;;;17.70;77.44
64200;BME280;50516;52.272;5.136;2023-05-10T10:36:30;101138.03;;;17.57;76.79
64200;BME280;50516;52.272;5.136;2023-05-10T10:38:59;101140.22;;;17.83;76.13
64200;BME280;50516;52.272;5.136;2023-05-10T10:41:35;101137.84;;;18.13;75.21
64200;BME280;50516;52.272;5.136;2023-05-10T10:44:24;101137.41;;;17.97;72.26
64200;BME280;50516;52.272;5.136;2023-05-10T10:46:59;101139.28;;;18.10;74.34
64200;BME280;50516;52.272;5.136;2023-05-10T10:49:26;101144.78;;;18.01;73.00
64200;BME280;50516;52.272;5.136;2023-05-10T10:54:39;101148.13;;;18.35;73.99
64200;BME280;50516;52.272;5.136;2023-05-10T10:57:12;101141.88;;;18.29;72.99
64200;BME280;50516;52.272;5.136;2023-05-10T10:59:44;101149.25;;;17.88;75.24
64200;BME280;50516;52.272;5.136;2023-05-10T11:02:17;101144.47;;;17.66;77.09
64200;BME280;50516;52.272;5.136;2023-05-10T11:04:55;101151.63;;;17.45;77.68
64200;BME280;50516;52.272;5.136;2023-05-10T11:07:21;101150.28;;;17.42;78.81
64200;BME280;50516;52.272;5.136;2023-05-10T11:09:49;101150.09;;;17.39;78.53
64200;BME280;50516;52.272;5.136;2023-05-10T11:12:15;101155.75;;;17.33;77.78
64200;BME280;50516;52.272;5.136;2023-05-10T11:14:40;101159.66;;;17.32;78.83
64200;BME280;50516;52.272;5.136;2023-05-10T11:17:26;101161.06;;;17.58;77.16
64200;BME280;50516;52.272;5.136;2023-05-10T11:20:10;101160.38;;;17.75;77.30
64200;BME280;50516;52.272;5.136;2023-05-10T11:22:52;101154.38;;;17.95;77.32
64200;BME280;50516;52.272;5.136;2023-05-10T11:25:17;101162.09;;;17.98;77.55
64200;BME280;50516;52.272;5.136;2023-05-10T11:27:43;101161.16;;;18.03;76.51
64200;BME280;50516;52.272;5.136;2023-05-10T11:30:12;101153.31;;;18.05;76.81
64200;BME280;50516;52.272;5.136;2023-05-10T11:32:38;101162.75;;;17.81;76.81
64200;BME280;50516;52.272;5.136;2023-05-10T11:35:08;101164.16;;;17.56;76.99
64200;BME280;50516;52.272;5.136;2023-05-10T11:37:33;101156.59;;;17.70;77.54
64200;BME280;50516;52.272;5.136;2023-05-10T11:39:59;101177.44;;;17.82;77.80
64200;BME280;50516;52.272;5.136;2023-05-10T11:42:25;101167.34;;;17.86;76.48
64200;BME280;50516;52.272;5.136;2023-05-10T11:44:50;101163.03;;;17.94;76.47
64200;BME280;50516;52.272;5.136;2023-05-10T11:47:15;101173.53;;;17.83;75.11
64200;BME280;50516;52.272;5.136;2023-05-10T11:49:44;101172.75;;;17.68;77.03
64200;BME280;50516;52.272;5.136;2023-05-10T11:52:10;101172.66;;;17.60;78.13
64200;BME280;50516;52.272;5.136;2023-05-10T11:54:51;101181.31;;;17.58;77.92
64200;BME280;50516;52.272;5.136;2023-05-10T11:57:18;101182.97;;;17.45;78.12
64200;BME280;50516;52.272;5.136;2023-05-10T11:59:44;101182.59;;;17.75;77.92
64200;BME280;50516;52.272;5.136;2023-05-10T12:02:10;101181.88;;;17.83;77.23
64200;BME280;50516;52.272;5.136;2023-05-10T12:04:35;101183.72;;;17.87;77.70
64200;BME280;50516;52.272;5.136;2023-05-10T12:07:01;101181.09;;;17.68;77.09
64200;BME280;50516;52.272;5.136;2023-05-10T12:09:26;101183.16;;;17.63;78.05
64200;BME280;50516;52.272;5.136;2023-05-10T12:11:55;101182.88;;;17.37;78.44
64200;BME280;50516;52.272;5.136;2023-05-10T12:14:21;101188.25;;;17.33;79.08
64200;BME280;50516;52.272;5.136;2023-05-10T12:16:47;101192.06;;;17.23;80.07
64200;BME280;50516;52.272;5.136;2023-05-10T12:19:18;101187.94;;;17.21;79.76
64200;BME280;50516;52.272;5.136;2023-05-10T12:21:44;101179.09;;;17.19;79.52
64200;BME280;50516;52.272;5.136;2023-05-10T12:24:09;101186.50;;;17.23;80.51
64200;BME280;50516;52.272;5.136;2023-05-10T12:26:36;101186.97;;;17.53;79.98
64200;BME280;50516;52.272;5.136;2023-05-10T12:29:16;101190.41;;;17.86;79.10
64200;BME280;50516;52.272;5.136;2023-05-10T12:31:55;101192.66;;;17.98;78.35
64200;BME280;50516;52.272;5.136;2023-05-10T12:34:32;101188.44;;;18.23;76.07
64200;BME280;50516;52.272;5.136;2023-05-10T12:36:58;101185.59;;;18.15;75.55
64200;BME280;50516;52.272;5.136;2023-05-10T12:39:24;101189.00;;;18.12;75.72
64200;BME280;50516;52.272;5.136;2023-05-10T12:41:50;101199.69;;;18.18;75.75
64200;BME280;50516;52.272;5.136;2023-05-10T12:44:16;101192.06;;;18.33;76.60
64200;BME280;50516;52.272;5.136;2023-05-10T12:46:42;101184.78;;;18.14;75.68
64200;BME280;50516;52.272;5.136;2023-05-10T12:49:07;101190.81;;;18.16;76.53
64200;BME280;50516;52.272;5.136;2023-05-10T12:51:32;101188.63;;;18.04;77.36
64200;BME280;50516;52.272;5.136;2023-05-10T12:53:58;101187.34;;;17.88;77.75
64200;BME280;50516;52.272;5.136;2023-05-10T12:56:23;101196.78;;;17.87;76.93
64200;BME280;50516;52.272;5.136;2023-05-10T12:58:48;101194.25;;;17.77;78.34
64200;BME280;50516;52.272;5.136;2023-05-10T13:01:14;101197.47;;;17.56;78.49
64200;BME280;50516;52.272;5.136;2023-05-10T13:03:39;101197.53;;;17.65;78.44
64200;BME280;50516;52.272;5.136;2023-05-10T13:06:05;101209.16;;;17.67;78.43
64200;BME280;50516;52.272;5.136;2023-05-10T13:08:31;101207.06;;;17.36;77.44